Time;durP1;ratioP1;P1;durP2;ratioP2;P2;SDS_P1;SDS_P2;PMS_P1;PMS_P2;Temp;Humidity;BMP_temperature;BMP_pressure;BME280_temperature;BME280_humidity;BME280_pressure;Samples;Min_cycle;Max_cycle;Signal;HPM_P1;HPM_P2
2023/01/09 00:00:20;;;;;;;2.95;1.75;;;8.40;99.90;;;;;;4991418;28;20117;-81
2023/01/09 00:02:46;;;;;;;2.13;1.27;;;8.40;99.90;;;;;;4992838;28;20022;-81
2023/01/09 00:05:15;;;;;;;4.88;1.75;;;8.40;99.90;;;;;;4991070;28;20406;-80
2023/01/09 00:07:40;;;;;;;3.33;1.30;;;8.40;99.90;;;;;;4992235;28;20030;-80
2023/01/09 00:10:08;;;;;;;2.35;1.40;;;8.40;99.90;;;;;;4992486;28;20088;-80
2023/01/09 00:12:34;;;;;;;2.40;1.33;;;8.40;99.90;;;;;;4976218;28;20031;-80
2023/01/09 00:15:00;;;;;;;8.93;1.30;;;8.40;99.90;;;;;;4989681;28;20034;-80
2023/01/09 00:17:26;;;;;;;3.92;2.42;;;8.40;99.90;;;;;;4992091;28;20486;-80
2023/01/09 00:19:52;;;;;;;1.27;0.90;;;8.40;99.90;;;;;;4988254;28;20406;-80
2023/01/09 00:22:19;;;;;;;2.15;1.52;;;8.40;99.90;;;;;;4993432;28;20485;-79
2023/01/09 00:24:44;;;;;;;2.13;1.38;;;8.40;99.90;;;;;;4991692;28;20030;-80
2023/01/09 00:27:13;;;;;;;2.80;1.65;;;8.40;99.90;;;;;;4959738;28;20038;-80
2023/01/09 00:29:44;;;;;;;2.95;1.30;;;8.40;99.90;;;;;;4992720;28;20037;-80
2023/01/09 00:32:11;;;;;;;1.92;1.30;;;8.40;99.90;;;;;;4961293;28;20367;-79
2023/01/09 00:34:41;;;;;;;3.13;1.23;;;8.40;99.90;;;;;;4987946;28;20041;-80
2023/01/09 00:37:10;;;;;;;5.88;1.60;;;8.40;99.90;;;;;;4991786;28;20085;-80
2023/01/09 00:39:40;;;;;;;2.22;1.20;;;8.50;99.90;;;;;;4992321;28;20042;-79
2023/01/09 00:42:10;;;;;;;2.83;1.42;;;8.50;99.90;;;;;;4977037;28;20026;-79
2023/01/09 00:44:48;;;;;;;2.22;1.42;;;8.40;99.90;;;;;;4990841;28;20034;-80
2023/01/09 00:47:26;;;;;;;1.77;0.98;;;8.50;99.90;;;;;;4959406;28;20133;-80
2023/01/09 00:49:53;;;;;;;2.40;1.17;;;8.50;99.90;;;;;;4992729;28;20267;-79
2023/01/09 00:52:20;;;;;;;1.23;0.70;;;8.50;99.90;;;;;;4992756;28;20035;-80
2023/01/09 00:54:46;;;;;;;2.65;1.38;;;8.50;99.90;;;;;;4986420;28;20383;-80
2023/01/09 00:57:13;;;;;;;2.85;1.55;;;8.50;99.90;;;;;;4974761;28;20042;-80
2023/01/09 00:59:40;;;;;;;1.63;1.05;;;8.50;99.90;;;;;;4987687;28;20027;-79
2023/01/09 01:02:06;;;;;;;4.07;1.67;;;8.50;99.90;;;;;;4974404;28;20043;-80
2023/01/09 01:10:00;;;;;;;3.58;1.48;;;8.50;99.90;;;;;;4990266;28;20101;-80
2023/01/09 01:12:26;;;;;;;4.00;1.50;;;8.60;99.90;;;;;;4989679;28;20494;-80
2023/01/09 01:14:52;;;;;;;3.10;1.50;;;8.60;99.90;;;;;;4952002;28;20038;-81
2023/01/09 01:17:18;;;;;;;1.20;1.00;;;8.60;99.90;;;;;;4964487;28;20038;-80
2023/01/09 01:19:44;;;;;;;3.40;1.88;;;8.60;99.90;;;;;;4959615;28;20030;-80
2023/01/09 01:22:10;;;;;;;2.88;1.70;;;8.60;99.90;;;;;;4975447;28;20046;-81
2023/01/09 01:24:35;;;;;;;1.65;1.17;;;8.50;99.90;;;;;;4992473;23;20030;-71
2023/01/09 01:27:01;;;;;;;2.05;1.30;;;8.60;99.90;;;;;;4999088;28;20060;-71
2023/01/09 01:29:27;;;;;;;2.28;1.40;;;8.60;99.90;;;;;;5016933;28;20091;-70
2023/01/09 01:31:53;;;;;;;3.63;2.22;;;8.60;99.90;;;;;;5016335;28;20041;-71
2023/01/09 01:34:19;;;;;;;2.60;1.50;;;8.60;99.90;;;;;;5017468;28;20033;-70
2023/01/09 01:36:44;;;;;;;3.72;1.33;;;8.70;99.90;;;;;;4998721;28;20616;-71
2023/01/09 01:39:11;;;;;;;5.18;1.85;;;8.70;99.90;;;;;;4998158;28;20767;-71
2023/01/09 01:41:37;;;;;;;4.30;0.80;;;8.70;99.90;;;;;;4999419;28;20133;-71
2023/01/09 01:44:44;;;;;;;1.35;0.75;;;8.80;99.90;;;;;;5000635;28;20080;-71
2023/01/09 01:47:09;;;;;;;0.70;0.68;;;8.80;99.90;;;;;;4999175;28;20030;-71
2023/01/09 01:49:36;;;;;;;3.30;0.95;;;8.80;99.90;;;;;;5000106;28;20508;-71
2023/01/09 01:52:02;;;;;;;1.40;0.82;;;8.80;99.90;;;;;;4998809;28;20030;-71
2023/01/09 01:54:31;;;;;;;0.50;0.32;;;8.80;99.90;;;;;;5014274;28;20422;-71
2023/01/09 01:57:02;;;;;;;0.50;0.30;;;8.80;99.90;;;;;;4981560;28;20034;-71
2023/01/09 01:59:49;;;;;;;0.77;0.30;;;8.90;99.90;;;;;;4997339;28;20033;-70
2023/01/09 02:02:25;;;;;;;3.42;0.70;;;8.80;99.90;;;;;;4998597;28;20034;-71
2023/01/09 02:04:54;;;;;;;3.47;0.45;;;8.80;99.90;;;;;;4995425;28;20110;-71
2023/01/09 02:07:20;;;;;;;0.82;0.52;;;8.80;99.90;;;;;;4992470;28;20029;-71
2023/01/09 02:09:45;;;;;;;0.98;0.57;;;8.80;99.90;;;;;;5000873;28;20448;-70
2023/01/09 02:12:29;;;;;;;1.23;0.35;;;8.80;99.90;;;;;;4996208;28;20068;-71
2023/01/09 02:15:05;;;;;;;0.95;0.32;;;8.90;99.90;;;;;;4998840;28;20025;-71
2023/01/09 02:17:52;;;;;;;0.10;0.10;;;8.80;99.90;;;;;;5004614;28;20037;-70
2023/01/09 02:20:38;;;;;;;1.50;0.75;;;8.90;99.90;;;;;;5026256;28;20128;-71
2023/01/09 02:23:25;;;;;;;4.88;0.55;;;8.90;99.90;;;;;;5024353;28;20112;-70
2023/01/09 02:26:12;;;;;;;1.27;0.60;;;8.90;99.90;;;;;;5007397;28;20574;-71
2023/01/09 02:29:17;;;;;;;0.90;0.30;;;8.90;99.90;;;;;;5010075;28;20046;-71
2023/01/09 02:32:07;;;;;;;0.75;0.50;;;8.80;99.90;;;;;;4994598;28;20041;-70
2023/01/09 02:34:52;;;;;;;0.45;0.35;;;8.80;99.90;;;;;;5017742;28;20512;-71
2023/01/09 02:37:42;;;;;;;0.60;0.60;;;8.80;99.90;;;;;;5009832;28;20045;-70
2023/01/09 02:40:43;;;;;;;0.57;0.52;;;8.80;99.90;;;;;;5010506;28;20541;-70
2023/01/09 02:43:11;;;;;;;0.52;0.52;;;8.80;99.90;;;;;;5008755;28;20034;-70
2023/01/09 02:45:36;;;;;;;1.38;0.55;;;8.80;99.90;;;;;;5025312;28;20057;-71
2023/01/09 02:48:02;;;;;;;0.93;0.50;;;8.80;99.90;;;;;;5009510;28;20042;-71
2023/01/09 02:50:57;;;;;;;1.02;0.47;;;8.80;99.90;;;;;;5010410;28;20034;-70
2023/01/09 02:53:43;;;;;;;0.93;0.60;;;8.80;99.90;;;;;;5024248;28;20489;-71
2023/01/09 02:56:35;;;;;;;1.90;1.23;;;8.80;99.90;;;;;;5010359;28;20077;-71
2023/01/09 02:59:20;;;;;;;0.85;0.50;;;8.80;99.90;;;;;;5008430;28;20041;-71
2023/01/09 03:02:07;;;;;;;0.60;0.28;;;8.80;99.90;;;;;;5024250;28;20105;-70
2023/01/09 03:05:11;;;;;;;0.73;0.63;;;8.80;99.90;;;;;;5004695;28;20053;-71
2023/01/09 03:07:57;;;;;;;1.05;0.52;;;8.80;99.90;;;;;;5009704;28;20671;-71
2023/01/09 03:10:51;;;;;;;3.13;1.35;;;8.80;99.90;;;;;;5024790;28;20509;-71
2023/01/09 03:13:22;;;;;;;0.68;0.40;;;8.80;99.90;;;;;;5009552;28;20046;-71
2023/01/09 03:15:52;;;;;;;1.27;0.68;;;8.80;99.90;;;;;;5005796;28;20058;-71
2023/01/09 03:18:23;;;;;;;1.00;0.57;;;8.80;99.90;;;;;;5005382;28;20084;-71
2023/01/09 03:20:50;;;;;;;0.63;0.40;;;8.80;99.90;;;;;;5009245;28;20030;-71
2023/01/09 03:23:16;;;;;;;0.52;0.50;;;8.80;99.90;;;;;;5008715;28;20037;-71
2023/01/09 03:25:41;;;;;;;0.30;0.20;;;8.80;99.90;;;;;;5013683;28;20079;-71
2023/01/09 03:28:23;;;;;;;0.70;0.30;;;8.80;99.90;;;;;;5012875;28;20129;-70
2023/01/09 03:30:49;;;;;;;0.63;0.40;;;8.70;99.90;;;;;;5028185;28;20026;-71
2023/01/09 03:33:14;;;;;;;0.73;0.43;;;8.80;99.90;;;;;;5012729;28;20037;-71
2023/01/09 03:35:40;;;;;;;1.08;0.55;;;8.80;99.90;;;;;;5013663;28;20087;-71
2023/01/09 03:38:06;;;;;;;2.97;1.02;;;8.80;99.90;;;;;;5013078;28;20505;-71
2023/01/09 03:40:32;;;;;;;0.85;0.50;;;8.80;99.90;;;;;;5013574;28;20030;-71
2023/01/09 03:42:57;;;;;;;1.63;0.45;;;8.90;99.90;;;;;;5012956;28;20143;-71
2023/01/09 03:45:23;;;;;;;2.45;0.55;;;9.00;99.90;;;;;;5013359;28;20032;-71
2023/01/09 03:47:49;;;;;;;2.75;0.85;;;8.90;99.90;;;;;;5012502;28;20049;-71
2023/01/09 03:50:15;;;;;;;1.27;0.43;;;8.80;99.90;;;;;;5013260;28;20040;-71
2023/01/09 03:52:40;;;;;;;2.60;0.50;;;8.90;99.90;;;;;;5012721;28;20060;-71
2023/01/09 03:55:07;;;;;;;2.50;0.40;;;8.80;99.90;;;;;;5012939;28;20029;-71
2023/01/09 03:57:33;;;;;;;1.08;0.40;;;8.90;99.90;;;;;;5012384;28;20081;-71
2023/01/09 03:59:58;;;;;;;0.95;0.63;;;8.90;99.90;;;;;;5013317;28;20065;-71
2023/01/09 04:02:24;;;;;;;0.75;0.55;;;8.80;99.90;;;;;;5012925;28;20424;-71
2023/01/09 04:04:50;;;;;;;0.80;0.52;;;8.80;99.90;;;;;;5027909;28;20025;-71
2023/01/09 04:07:15;;;;;;;0.50;0.22;;;8.70;99.90;;;;;;5012435;28;20034;-71
2023/01/09 04:09:41;;;;;;;3.03;0.45;;;8.70;99.90;;;;;;5011648;28;20497;-71
2023/01/09 04:12:07;;;;;;;9.95;0.20;;;8.70;99.90;;;;;;5012732;28;20512;-71
2023/01/09 04:14:33;;;;;;;0.20;0.15;;;8.80;99.90;;;;;;5028172;28;20119;-71
2023/01/09 04:16:58;;;;;;;0.80;0.32;;;8.80;99.90;;;;;;5012217;28;20037;-71
2023/01/09 04:19:24;;;;;;;0.32;0.17;;;8.70;99.90;;;;;;5012570;28;20030;-71
2023/01/09 04:21:50;;;;;;;2.28;0.63;;;8.80;99.90;;;;;;5024511;28;20061;-71
2023/01/09 04:24:15;;;;;;;0.28;0.25;;;8.80;99.90;;;;;;5012738;28;20026;-71
2023/01/09 04:26:41;;;;;;;0.25;0.20;;;8.90;99.90;;;;;;5011871;28;20039;-71
2023/01/09 04:29:07;;;;;;;0.00;0.00;;;9.00;99.90;;;;;;5011507;28;20033;-71
2023/01/09 04:31:32;;;;;;;0.08;0.08;;;9.00;99.90;;;;;;5027536;28;20048;-71
2023/01/09 04:33:58;;;;;;;0.20;0.20;;;9.00;99.90;;;;;;5012503;28;20061;-71
2023/01/09 04:36:24;;;;;;;0.22;0.13;;;9.00;99.90;;;;;;5011788;28;20026;-71
2023/01/09 04:38:49;;;;;;;0.10;0.10;;;9.00;99.90;;;;;;5012136;28;20033;-71
2023/01/09 04:41:47;;;;;;;1.13;0.40;;;9.00;99.90;;;;;;4992600;28;20089;-71
2023/01/09 04:44:01;;;;;;;0.60;0.35;;;9.00;99.90;;;;;;5010203;28;20034;-71
2023/01/09 04:46:26;;;;;;;0.10;0.10;;;8.90;99.90;;;;;;5011625;28;20030;-71
2023/01/09 04:48:52;;;;;;;1.35;0.10;;;8.90;99.90;;;;;;5012103;28;20067;-71
2023/01/09 04:51:18;;;;;;;0.68;0.10;;;8.90;99.90;;;;;;5011784;28;20116;-71
2023/01/09 04:53:43;;;;;;;0.35;0.10;;;8.90;99.90;;;;;;5024181;28;20042;-71
2023/01/09 04:56:10;;;;;;;0.17;0.17;;;8.90;99.90;;;;;;5001416;28;20038;-70
2023/01/09 04:58:35;;;;;;;0.30;0.20;;;8.90;99.90;;;;;;5011028;28;20045;-71
2023/01/09 05:01:01;;;;;;;2.55;0.22;;;8.80;99.90;;;;;;5011984;28;20030;-71
2023/01/09 05:03:27;;;;;;;0.73;0.35;;;8.80;99.90;;;;;;5007048;28;20397;-71
2023/01/09 05:05:53;;;;;;;1.45;0.85;;;8.80;99.90;;;;;;5010462;28;20101;-75
2023/01/09 05:08:18;;;;;;;0.10;0.10;;;8.70;99.90;;;;;;5017232;28;20064;-69
2023/01/09 05:10:44;;;;;;;0.75;0.32;;;8.70;99.90;;;;;;5000608;28;20121;-69
2023/01/09 05:13:10;;;;;;;0.85;0.10;;;8.70;99.90;;;;;;4998111;28;20124;-67
2023/01/09 05:15:35;;;;;;;0.20;0.10;;;8.70;99.90;;;;;;4998328;28;20045;-68
2023/01/09 05:18:01;;;;;;;0.50;0.30;;;8.70;99.90;;;;;;4999265;28;20484;-68
2023/01/09 05:20:27;;;;;;;0.03;0.03;;;8.70;99.90;;;;;;5000857;28;20026;-68
2023/01/09 05:22:52;;;;;;;0.47;0.32;;;8.70;99.90;;;;;;5001276;28;20554;-68
2023/01/09 05:25:18;;;;;;;0.32;0.10;;;8.80;99.90;;;;;;5014406;28;20030;-68
2023/01/09 05:27:45;;;;;;;0.00;0.00;;;8.80;99.90;;;;;;4999008;28;20072;-68
2023/01/09 05:30:12;;;;;;;0.10;0.10;;;8.70;99.90;;;;;;4997155;28;20072;-68
2023/01/09 05:32:38;;;;;;;0.00;0.00;;;8.80;99.90;;;;;;4997676;28;20493;-68
2023/01/09 05:35:04;;;;;;;0.10;0.05;;;8.80;99.90;;;;;;5002957;28;20088;-69
2023/01/09 05:37:30;;;;;;;0.20;0.20;;;8.70;99.90;;;;;;5010425;28;20113;-69
2023/01/09 05:39:56;;;;;;;0.55;0.30;;;8.70;99.90;;;;;;5007793;28;20038;-68
2023/01/09 05:42:21;;;;;;;0.95;0.30;;;8.60;99.90;;;;;;5011468;28;20481;-68
2023/01/09 05:44:47;;;;;;;0.35;0.17;;;8.50;99.90;;;;;;5011314;28;20050;-69
2023/01/09 05:47:13;;;;;;;1.10;0.43;;;8.40;99.90;;;;;;5010410;28;20074;-69
2023/01/09 05:49:38;;;;;;;0.10;0.10;;;8.30;99.90;;;;;;5011068;28;20474;-68
2023/01/09 05:52:04;;;;;;;0.80;0.17;;;8.10;99.90;;;;;;5025681;28;20034;-69
2023/01/09 05:54:30;;;;;;;1.00;0.20;;;8.10;99.90;;;;;;5007160;28;20038;-69
2023/01/09 05:56:56;;;;;;;0.70;0.30;;;8.00;99.90;;;;;;5006945;28;20034;-68
2023/01/09 05:59:22;;;;;;;0.50;0.30;;;8.00;99.90;;;;;;5010949;28;20037;-68
2023/01/09 06:01:47;;;;;;;4.93;1.10;;;8.00;99.90;;;;;;5009305;28;20025;-68
2023/01/09 06:04:13;;;;;;;0.20;0.20;;;8.10;99.90;;;;;;5010690;28;20412;-68
2023/01/09 06:06:39;;;;;;;1.10;0.40;;;8.20;99.90;;;;;;5009868;28;20041;-68
2023/01/09 06:09:05;;;;;;;0.30;0.30;;;8.30;99.90;;;;;;5010955;28;20300;-68
2023/01/09 06:11:34;;;;;;;0.20;0.20;;;8.30;99.90;;;;;;5010381;28;20505;-69
2023/01/09 06:14:01;;;;;;;1.13;0.20;;;8.20;99.90;;;;;;5025791;28;20114;-70
2023/01/09 06:16:26;;;;;;;0.20;0.13;;;8.20;99.90;;;;;;5009543;28;20036;-70
2023/01/09 06:18:52;;;;;;;0.57;0.55;;;8.20;99.90;;;;;;5010675;28;20321;-70
2023/01/09 06:21:18;;;;;;;3.00;0.50;;;8.20;99.90;;;;;;5010054;28;20042;-81
2023/01/09 06:23:43;;;;;;;8.02;0.55;;;8.10;99.90;;;;;;5010569;28;20034;-71
2023/01/09 06:26:09;;;;;;;0.20;0.20;;;8.10;99.90;;;;;;5002850;28;20026;-70
2023/01/09 06:28:35;;;;;;;1.13;0.40;;;8.10;99.90;;;;;;5008990;28;20073;-71
2023/01/09 06:31:01;;;;;;;2.17;0.47;;;8.10;99.90;;;;;;5012312;28;20061;-69
2023/01/09 06:33:26;;;;;;;0.43;0.32;;;8.00;99.90;;;;;;5010711;28;20371;-69
2023/01/09 06:35:52;;;;;;;0.47;0.40;;;8.00;99.90;;;;;;5025365;28;20037;-69
2023/01/09 06:38:18;;;;;;;7.05;0.50;;;8.00;99.90;;;;;;5009949;28;20113;-68
2023/01/09 06:40:43;;;;;;;0.43;0.17;;;8.00;99.90;;;;;;5013165;28;20513;-70
2023/01/09 06:43:09;;;;;;;1.70;0.50;;;8.00;99.90;;;;;;5010064;28;20026;-68
2023/01/09 06:45:35;;;;;;;7.93;1.33;;;8.00;99.90;;;;;;5010017;28;20037;-67
2023/01/09 06:48:01;;;;;;;1.35;0.30;;;7.90;99.90;;;;;;5008297;28;20038;-69
2023/01/09 06:50:27;;;;;;;9.77;0.43;;;7.90;99.90;;;;;;5010486;28;20030;-68
2023/01/09 06:52:52;;;;;;;0.17;0.10;;;7.90;99.90;;;;;;5012351;28;20131;-69
2023/01/09 06:55:18;;;;;;;2.45;0.32;;;7.90;99.90;;;;;;5003798;28;20479;-68
2023/01/09 06:57:44;;;;;;;1.40;0.20;;;7.90;99.90;;;;;;5007693;28;20044;-68
2023/01/09 07:00:10;;;;;;;0.35;0.10;;;7.80;99.90;;;;;;5014289;28;20033;-67
2023/01/09 07:02:36;;;;;;;0.00;0.00;;;7.80;99.90;;;;;;5013176;28;20041;-69
2023/01/09 07:05:02;;;;;;;0.25;0.17;;;7.80;99.90;;;;;;5010735;28;20452;-68
2023/01/09 07:07:28;;;;;;;0.00;0.00;;;7.80;99.90;;;;;;5013643;28;20030;-68
2023/01/09 07:09:54;;;;;;;0.13;0.13;;;7.80;99.90;;;;;;5012992;28;20497;-69
2023/01/09 07:12:19;;;;;;;1.50;0.50;;;7.80;99.90;;;;;;5014511;28;20069;-68
2023/01/09 07:14:45;;;;;;;0.32;0.20;;;7.70;99.90;;;;;;5011086;28;20069;-68
2023/01/09 07:17:14;;;;;;;1.95;0.28;;;7.70;99.90;;;;;;5008339;28;20747;-68
2023/01/09 07:19:40;;;;;;;2.25;0.68;;;7.70;99.90;;;;;;5009751;28;20048;-68
2023/01/09 07:22:06;;;;;;;1.05;0.65;;;7.60;99.90;;;;;;5013324;28;20533;-69
2023/01/09 07:24:32;;;;;;;0.10;0.10;;;7.70;99.90;;;;;;5009687;28;20038;-69
2023/01/09 07:26:58;;;;;;;3.15;0.30;;;7.70;99.90;;;;;;5036449;23;20041;-72
2023/01/09 07:29:23;;;;;;;2.45;0.57;;;7.60;99.90;;;;;;5033681;28;20393;-73
2023/01/09 07:31:49;;;;;;;0.73;0.15;;;7.60;99.90;;;;;;5032349;28;20037;-73
2023/01/09 07:34:15;;;;;;;1.48;0.40;;;7.70;99.90;;;;;;5033442;28;20034;-72
2023/01/09 07:36:40;;;;;;;0.80;0.40;;;7.70;99.90;;;;;;5032510;28;20072;-72
2023/01/09 07:39:07;;;;;;;4.47;0.35;;;7.70;99.90;;;;;;5033443;28;20388;-70
2023/01/09 07:41:33;;;;;;;0.22;0.20;;;7.70;99.90;;;;;;5032405;28;20120;-75
2023/01/09 07:43:59;;;;;;;0.00;0.00;;;7.70;99.90;;;;;;5033438;28;20108;-74
2023/01/09 07:46:24;;;;;;;5.68;0.80;;;7.70;99.90;;;;;;5032001;28;20424;-75
2023/01/09 07:48:50;;;;;;;0.20;0.20;;;7.70;99.90;;;;;;5033619;28;20022;-75
2023/01/09 07:51:16;;;;;;;1.30;0.10;;;7.80;99.90;;;;;;5032786;28;20084;-75
2023/01/09 07:53:41;;;;;;;3.75;0.75;;;7.80;99.90;;;;;;5033540;28;20152;-74
2023/01/09 07:56:07;;;;;;;0.13;0.10;;;7.70;99.90;;;;;;5025597;28;20725;-74
2023/01/09 07:58:33;;;;;;;5.47;0.85;;;7.60;99.90;;;;;;5033081;28;20444;-75
2023/01/09 08:00:58;;;;;;;1.08;0.75;;;7.60;99.90;;;;;;5031992;28;20493;-75
2023/01/09 08:03:25;;;;;;;2.10;0.43;;;7.60;99.90;;;;;;5032687;28;20051;-76
2023/01/09 08:05:51;;;;;;;5.68;0.65;;;7.50;99.90;;;;;;5030688;28;20031;-76
2023/01/09 08:08:17;;;;;;;6.78;0.90;;;7.40;99.90;;;;;;5032577;28;20029;-76
2023/01/09 08:10:43;;;;;;;0.80;0.15;;;7.40;99.90;;;;;;5031079;28;20500;-76
2023/01/09 08:13:08;;;;;;;9.40;1.48;;;7.40;99.90;;;;;;5032619;28;20029;-76
2023/01/09 08:15:34;;;;;;;4.85;0.40;;;7.40;99.90;;;;;;5031779;28;20535;-76
2023/01/09 08:18:00;;;;;;;0.75;0.45;;;7.40;99.90;;;;;;5032329;28;20030;-76
2023/01/09 08:20:26;;;;;;;0.30;0.20;;;7.40;99.90;;;;;;5031558;28;20398;-75
2023/01/09 08:22:53;;;;;;;2.80;0.50;;;7.40;99.90;;;;;;5032654;28;20507;-75
2023/01/09 08:25:19;;;;;;;0.57;0.55;;;7.40;99.90;;;;;;5025444;28;20021;-76
2023/01/09 08:27:45;;;;;;;0.88;0.32;;;7.40;99.90;;;;;;5022873;28;20531;-75
2023/01/09 08:30:12;;;;;;;0.93;0.20;;;7.40;99.90;;;;;;5031387;28;20037;-76
2023/01/09 08:32:38;;;;;;;6.70;0.43;;;7.50;99.90;;;;;;5006931;28;20567;-75
2023/01/09 08:35:05;;;;;;;2.60;0.32;;;7.50;99.90;;;;;;5029900;28;20112;-75
2023/01/09 08:37:31;;;;;;;0.77;0.45;;;7.50;99.90;;;;;;5031755;28;20026;-75
2023/01/09 08:39:56;;;;;;;9.70;1.90;;;7.50;99.90;;;;;;5031373;28;20040;-76
2023/01/09 08:47:53;;;;;;;1.05;0.43;;;7.60;99.90;;;;;;5024900;28;20031;-75
2023/01/09 08:50:19;;;;;;;6.13;0.63;;;7.70;99.90;;;;;;5031418;28;20045;-76
2023/01/09 08:52:45;;;;;;;1.10;0.77;;;7.70;99.90;;;;;;5032239;28;20440;-75
2023/01/09 08:55:11;;;;;;;0.38;0.10;;;7.80;99.90;;;;;;5023447;28;20120;-72
2023/01/09 08:57:37;;;;;;;0.20;0.10;;;7.80;99.90;;;;;;5032572;28;20108;-75
2023/01/09 09:00:03;;;;;;;0.80;0.10;;;7.80;99.90;;;;;;5030223;28;20037;-76
2023/01/09 09:02:29;;;;;;;2.63;0.60;;;7.80;99.90;;;;;;5012086;28;20428;-75
2023/01/09 09:04:55;;;;;;;0.65;0.40;;;7.80;99.90;;;;;;5030515;28;20034;-77
2023/01/09 09:07:25;;;;;;;0.35;0.25;;;7.80;99.90;;;;;;5031485;28;20021;-74
2023/01/09 09:09:54;;;;;;;0.90;0.52;;;7.80;99.90;;;;;;5031076;28;20108;-74
2023/01/09 09:12:21;;;;;;;2.15;0.45;;;7.80;99.90;;;;;;5028285;28;20029;-74
2023/01/09 09:17:32;;;;;;;0.47;0.30;;;7.90;99.90;;;;;;5025343;28;20041;-74
2023/01/09 09:19:59;;;;;;;1.17;0.50;;;7.80;99.90;;;;;;5030709;28;20029;-73
2023/01/09 09:22:25;;;;;;;0.30;0.25;;;7.90;99.90;;;;;;5013421;28;20025;-74
2023/01/09 09:24:51;;;;;;;2.45;0.40;;;8.00;99.90;;;;;;5029804;28;20389;-74
2023/01/09 09:27:16;;;;;;;1.27;0.20;;;8.00;99.90;;;;;;5030921;28;20037;-74
2023/01/09 09:29:42;;;;;;;4.43;0.45;;;8.00;99.90;;;;;;5031447;28;20029;-74
2023/01/09 09:32:08;;;;;;;2.38;0.52;;;8.00;99.90;;;;;;5030268;28;20048;-74
2023/01/09 09:34:34;;;;;;;4.75;0.57;;;8.10;99.90;;;;;;5031396;28;20116;-74
2023/01/09 09:36:59;;;;;;;3.63;0.68;;;8.10;99.90;;;;;;5029985;28;20116;-74
2023/01/09 09:39:25;;;;;;;12.00;1.85;;;8.10;99.90;;;;;;5031279;28;20128;-75
2023/01/09 09:45:43;;;;;;;1.30;0.70;;;8.10;99.90;;;;;;5030153;28;20045;-74
2023/01/09 09:48:36;;;;;;;3.20;0.20;;;8.20;99.90;;;;;;5022132;28;20489;-75
2023/01/09 09:51:20;;;;;;;2.60;0.43;;;8.30;99.90;;;;;;5028799;28;20033;-74
2023/01/09 09:54:01;;;;;;;1.55;0.57;;;8.20;99.90;;;;;;5029775;28;20040;-74
2023/01/09 09:56:32;;;;;;;2.65;0.55;;;8.20;99.90;;;;;;5023385;28;20456;-74
2023/01/09 09:59:19;;;;;;;4.80;0.85;;;8.30;99.90;;;;;;5029946;28;20108;-74
2023/01/09 10:02:04;;;;;;;5.38;0.75;;;8.30;99.90;;;;;;5028952;28;20489;-73
2023/01/09 10:04:32;;;;;;;10.38;0.88;;;8.50;99.90;;;;;;5008141;28;20048;-73
2023/01/09 10:07:17;;;;;;;4.95;0.50;;;8.30;99.90;;;;;;5029460;28;20033;-74
2023/01/09 10:09:54;;;;;;;1.00;0.15;;;8.30;99.90;;;;;;5029904;28;20408;-74
2023/01/09 10:12:32;;;;;;;6.70;0.73;;;8.30;99.90;;;;;;5021986;28;20035;-74
2023/01/09 10:15:12;;;;;;;1.05;0.55;;;8.40;99.90;;;;;;5030072;28;20029;-73
2023/01/09 10:18:19;;;;;;;2.33;0.47;;;8.40;99.90;;;;;;5030706;28;20029;-73
2023/01/09 10:21:10;;;;;;;3.60;0.43;;;8.30;99.90;;;;;;5017689;28;20401;-74
2023/01/09 10:23:55;;;;;;;;;;;8.20;99.90;;;;;;5000530;28;20030;-74
2023/01/09 10:26:36;;;;;;;1.20;0.40;;;8.30;99.90;;;;;;5022780;28;19959;-74
2023/01/09 10:29:10;;;;;;;;;;;8.40;99.90;;;;;;5029539;28;20108;-74
2023/01/09 10:31:56;;;;;;;0.10;0.10;;;8.40;99.90;;;;;;5029613;28;20438;-74
2023/01/09 10:35:03;;;;;;;2.30;0.43;;;8.60;99.90;;;;;;5023752;28;20042;-74
2023/01/09 10:37:36;;;;;;;3.17;0.45;;;8.50;99.90;;;;;;4989261;28;20493;-73
2023/01/09 10:40:15;;;;;;;1.80;0.32;;;8.50;99.90;;;;;;5028084;28;20061;-73
2023/01/09 10:42:50;;;;;;;1.00;0.47;;;8.30;99.90;;;;;;5022635;28;20064;-73
2023/01/09 10:45:32;;;;;;;6.45;0.47;;;8.40;99.90;;;;;;5028862;28;20032;-74
2023/01/09 10:48:13;;;;;;;1.88;0.90;;;8.40;99.90;;;;;;5021654;28;20061;-74
2023/01/09 10:50:44;;;;;;;1.65;0.45;;;8.30;99.90;;;;;;5028182;28;20029;-75
2023/01/09 10:53:26;;;;;;;0.47;0.30;;;8.20;99.90;;;;;;5030634;28;20076;-75
2023/01/09 10:56:00;;;;;;;2.28;1.45;;;7.90;99.90;;;;;;5005959;28;20040;-75
2023/01/09 10:58:27;;;;;;;1.65;0.43;;;7.90;99.90;;;;;;5029033;28;20033;-74
2023/01/09 11:00:55;;;;;;;6.97;0.30;;;7.90;99.90;;;;;;5029459;28;20072;-74
2023/01/09 11:03:24;;;;;;;4.75;1.00;;;7.90;99.90;;;;;;5013020;28;20112;-74
2023/01/09 11:05:53;;;;;;;0.10;0.10;;;7.80;99.90;;;;;;5029535;28;20026;-74
2023/01/09 11:08:40;;;;;;;0.38;0.25;;;7.80;99.90;;;;;;5019763;28;20385;-74
2023/01/09 11:11:07;;;;;;;3.25;0.30;;;7.80;99.90;;;;;;5028065;28;20040;-74
2023/01/09 11:13:35;;;;;;;0.10;0.10;;;7.90;99.90;;;;;;5029108;28;20041;-74
2023/01/09 11:16:17;;;;;;;1.60;0.25;;;8.10;99.90;;;;;;5027792;28;20061;-74
2023/01/09 11:18:57;;;;;;;10.25;0.70;;;8.10;99.90;;;;;;5005390;28;20030;-74
2023/01/09 11:21:40;;;;;;;2.83;0.38;;;8.10;99.90;;;;;;5025717;28;20444;-74
2023/01/09 11:24:18;;;;;;;0.00;0.00;;;8.20;99.90;;;;;;5028431;28;20083;-74
2023/01/09 11:27:12;;;;;;;1.55;1.10;;;8.20;99.90;;;;;;5007440;28;20068;-73
2023/01/09 11:29:42;;;;;;;1.35;0.50;;;8.20;99.90;;;;;;5024910;28;20538;-74
2023/01/09 11:32:23;;;;;;;1.38;0.55;;;8.20;99.90;;;;;;5028825;28;20091;-74
2023/01/09 11:34:49;;;;;;;0.30;0.20;;;8.20;99.90;;;;;;5029616;28;20060;-73
2023/01/09 11:37:29;;;;;;;5.68;0.28;;;8.00;99.90;;;;;;5012205;28;20065;-74
2023/01/09 11:39:58;;;;;;;0.67;0.30;;;8.10;99.90;;;;;;5031063;28;20057;-74
2023/01/09 11:45:18;;;;;;;2.35;0.47;;;7.90;99.90;;;;;;5031383;28;20069;-75
2023/01/09 11:47:45;;;;;;;0.10;0.10;;;7.90;99.90;;;;;;5024164;28;20033;-75
2023/01/09 11:50:23;;;;;;;0.25;0.20;;;7.90;99.90;;;;;;5030984;28;20041;-75
2023/01/09 11:53:17;;;;;;;0.63;0.13;;;7.90;99.90;;;;;;5033394;28;20052;-75
2023/01/09 11:55:46;;;;;;;1.55;0.35;;;8.00;99.90;;;;;;5025906;28;20040;-74
2023/01/09 11:58:20;;;;;;;0.10;0.10;;;7.90;99.90;;;;;;5023417;28;20523;-74
2023/01/09 12:01:38;;;;;;;1.38;0.68;;;7.90;99.90;;;;;;5032000;28;20033;-73
2023/01/09 12:04:31;;;;;;;0.20;0.17;;;7.90;99.90;;;;;;4991008;28;20056;-73
2023/01/09 12:07:42;;;;;;;0.40;0.25;;;8.00;99.90;;;;;;5029257;28;20408;-74
2023/01/09 12:10:29;;;;;;;0.70;0.47;;;7.90;99.90;;;;;;5031431;28;20114;-74
2023/01/09 12:13:32;;;;;;;0.65;0.40;;;7.90;99.90;;;;;;5032944;28;20033;-75
2023/01/09 12:16:52;;;;;;;7.88;0.65;;;7.90;99.90;;;;;;5030588;28;20116;-74
2023/01/09 12:19:56;;;;;;;0.73;0.38;;;8.00;99.90;;;;;;4958976;28;20055;-74
2023/01/09 12:22:57;;;;;;;1.27;0.22;;;8.00;99.90;;;;;;4940973;28;20057;-73
2023/01/09 12:26:10;;;;;;;0.52;0.47;;;8.00;99.90;;;;;;5021259;28;20037;-73
2023/01/09 12:28:47;;;;;;;2.08;0.40;;;7.80;99.90;;;;;;4976774;28;20061;-74
2023/01/09 12:31:37;;;;;;;1.15;0.47;;;7.90;99.90;;;;;;5031029;28;20068;-75
2023/01/09 12:34:43;;;;;;;2.05;0.35;;;7.90;99.90;;;;;;5032194;28;20044;-75
2023/01/09 12:37:40;;;;;;;1.45;0.38;;;7.90;99.90;;;;;;5031019;28;20041;-75
2023/01/09 12:40:38;;;;;;;0.60;0.43;;;7.90;99.90;;;;;;5030808;28;20065;-75
2023/01/09 12:43:14;;;;;;;0.63;0.43;;;7.90;99.90;;;;;;5032281;28;20036;-75
2023/01/09 12:46:19;;;;;;;0.10;0.10;;;7.90;99.90;;;;;;5031593;28;20115;-74
2023/01/09 12:49:12;;;;;;;0.10;0.10;;;7.90;99.90;;;;;;5026947;28;20025;-74
2023/01/09 12:51:52;;;;;;;4.90;0.65;;;7.90;99.90;;;;;;5031642;28;20106;-74
2023/01/09 12:54:31;;;;;;;0.68;0.40;;;8.00;99.90;;;;;;5022899;28;20385;-74
2023/01/09 12:57:03;;;;;;;0.85;0.25;;;7.90;99.90;;;;;;5030546;28;20501;-74
2023/01/09 12:59:43;;;;;;;0.55;0.30;;;8.00;99.90;;;;;;5030478;28;20042;-74
2023/01/09 13:02:45;;;;;;;0.65;0.40;;;8.00;99.90;;;;;;5029562;28;20053;-74
2023/01/09 13:05:56;;;;;;;0.52;0.17;;;7.90;99.90;;;;;;5012791;28;20033;-74
2023/01/09 13:08:24;;;;;;;3.08;0.55;;;7.90;99.90;;;;;;4931648;29;20074;-74
2023/01/09 13:10:56;;;;;;;2.15;0.40;;;7.80;99.90;;;;;;5005080;28;20132;-74
2023/01/09 13:13:26;;;;;;;0.10;0.10;;;7.80;99.90;;;;;;5031605;28;20048;-75
2023/01/09 13:16:00;;;;;;;0.22;0.20;;;7.90;99.90;;;;;;5013041;28;20041;-75
2023/01/09 13:18:40;;;;;;;0.73;0.22;;;8.00;99.90;;;;;;5029928;28;20091;-74
2023/01/09 13:21:08;;;;;;;0.30;0.27;;;8.20;99.90;;;;;;5029105;28;20037;-74
2023/01/09 13:24:02;;;;;;;2.90;0.43;;;8.40;99.90;;;;;;5026218;28;20489;-74
2023/01/09 13:26:41;;;;;;;0.88;0.32;;;8.60;99.90;;;;;;5010553;23;20077;-74
2023/01/09 13:29:29;;;;;;;3.05;0.75;;;8.80;99.90;;;;;;4978231;28;20036;-75
2023/01/09 13:32:14;;;;;;;0.00;0.00;;;8.90;99.90;;;;;;4993803;28;20034;-75
2023/01/09 13:34:43;;;;;;;0.00;0.00;;;8.90;99.90;;;;;;5011564;28;20112;-75
2023/01/09 13:37:38;;;;;;;0.00;0.00;;;9.30;99.90;;;;;;5009847;28;20034;-76
2023/01/09 13:40:28;;;;;;;0.55;0.25;;;9.80;99.90;;;;;;5010893;28;20057;-75
2023/01/09 13:43:05;;;;;;;0.45;0.20;;;9.90;99.90;;;;;;4990810;28;20034;-75
2023/01/09 13:45:36;;;;;;;0.35;0.10;;;9.50;99.90;;;;;;5009146;28;20088;-75